Time;durP1;ratioP1;P1;durP2;ratioP2;P2;SDS_P1;SDS_P2;PMS_P1;PMS_P2;Temp;Humidity;BMP_temperature;BMP_pressure;BME280_temperature;BME280_humidity;BME280_pressure;Samples;Min_cycle;Max_cycle;Signal;HPM_P1;HPM_P2
2022/06/10 00:01:02;;;;;;;9.38;3.40;;;12.00;99.90;;;;;;5072815;28;20122;-78
2022/06/10 00:03:28;;;;;;;9.90;3.00;;;12.00;99.90;;;;;;5071674;28;20580;-77
2022/06/10 00:05:58;;;;;;;5.40;3.15;;;12.00;99.90;;;;;;5071832;28;20041;-76
2022/06/10 00:08:29;;;;;;;5.53;2.50;;;12.00;99.90;;;;;;5055076;28;20036;-76
2022/06/10 00:10:56;;;;;;;4.83;2.63;;;12.00;99.90;;;;;;5072657;28;20499;-76
2022/06/10 00:13:25;;;;;;;8.20;2.60;;;12.00;99.90;;;;;;5071876;28;20498;-76
2022/06/10 00:15:53;;;;;;;4.65;2.10;;;12.00;99.90;;;;;;5071586;28;20112;-77
2022/06/10 00:18:19;;;;;;;6.75;2.50;;;12.00;99.90;;;;;;5071430;28;20077;-77
2022/06/10 00:20:46;;;;;;;5.78;2.50;;;12.00;99.90;;;;;;5072568;28;20041;-77
2022/06/10 00:23:11;;;;;;;10.25;2.88;;;11.90;99.90;;;;;;5071315;28;20036;-77
2022/06/10 00:25:37;;;;;;;6.18;2.20;;;11.90;99.90;;;;;;5071194;28;20036;-77
2022/06/10 00:28:04;;;;;;;5.82;2.80;;;11.90;99.90;;;;;;5071570;28;20036;-78
2022/06/10 00:30:31;;;;;;;6.32;2.38;;;12.00;99.90;;;;;;5070840;28;20431;-76
2022/06/10 00:32:58;;;;;;;11.18;3.03;;;11.90;99.90;;;;;;5071297;28;20044;-77
2022/06/10 00:35:23;;;;;;;4.38;2.45;;;12.00;99.90;;;;;;5071194;28;20044;-77
2022/06/10 00:37:49;;;;;;;3.75;2.28;;;11.90;99.90;;;;;;5054501;28;20040;-78
2022/06/10 00:40:22;;;;;;;10.52;2.75;;;11.90;99.90;;;;;;5070730;28;20062;-76
2022/06/10 00:42:49;;;;;;;12.60;2.75;;;11.90;99.90;;;;;;5070975;28;20070;-77
2022/06/10 00:45:52;;;;;;;4.80;2.63;;;11.80;99.90;;;;;;5071004;28;20079;-76
2022/06/10 00:48:19;;;;;;;;;;;11.80;99.90;;;;;;5071360;28;20084;-76
2022/06/10 00:50:46;;;;;;;7.43;2.45;;;11.80;99.90;;;;;;5070655;28;20053;-76
2022/06/10 00:53:15;;;;;;;5.28;2.45;;;11.70;99.90;;;;;;5071137;28;20123;-76
2022/06/10 00:55:42;;;;;;;5.07;2.13;;;11.70;99.90;;;;;;5070840;28;20525;-76
2022/06/10 00:58:24;;;;;;;4.10;2.38;;;11.70;99.90;;;;;;5070592;28;20133;-77
2022/06/10 01:00:50;;;;;;;7.30;2.30;;;11.60;99.90;;;;;;5070726;28;20040;-76
2022/06/10 01:03:16;;;;;;;8.00;3.20;;;11.60;99.90;;;;;;5070649;28;20048;-78
2022/06/10 01:05:42;;;;;;;19.60;3.00;;;11.60;99.90;;;;;;5070888;28;20041;-76
2022/06/10 01:08:12;;;;;;;7.00;2.08;;;11.60;99.90;;;;;;5070557;28;20052;-76
2022/06/10 01:11:17;;;;;;;6.10;2.80;;;11.60;99.90;;;;;;5070191;28;20036;-76
2022/06/10 01:13:51;;;;;;;9.55;2.95;;;11.50;99.90;;;;;;5070384;28;20379;-76
2022/06/10 01:16:54;;;;;;;5.55;2.72;;;11.50;99.90;;;;;;5070361;28;20041;-76
2022/06/10 01:19:57;;;;;;;3.65;2.33;;;11.50;99.90;;;;;;5070376;28;20052;-76
2022/06/10 01:22:35;;;;;;;9.23;3.45;;;11.50;99.90;;;;;;5070173;28;20526;-77
2022/06/10 01:25:10;;;;;;;7.43;2.63;;;11.40;99.90;;;;;;5069865;28;20036;-76
2022/06/10 01:27:54;;;;;;;7.60;2.40;;;11.50;99.90;;;;;;5070182;28;20040;-77
2022/06/10 01:30:38;;;;;;;4.25;2.35;;;11.50;99.90;;;;;;5069605;28;20040;-77
2022/06/10 01:33:25;;;;;;;13.07;3.33;;;11.40;99.90;;;;;;5069899;28;20045;-76
2022/06/10 01:35:57;;;;;;;4.78;2.38;;;11.40;99.90;;;;;;5069931;28;20131;-78
2022/06/10 01:38:31;;;;;;;4.28;2.55;;;11.40;99.90;;;;;;5070177;28;20127;-76
2022/06/10 01:41:29;;;;;;;7.78;2.65;;;11.40;99.90;;;;;;5069152;28;20403;-77
2022/06/10 01:44:03;;;;;;;6.68;3.00;;;11.40;99.90;;;;;;5069775;28;20072;-76
2022/06/10 01:46:32;;;;;;;7.75;2.70;;;11.40;99.90;;;;;;5069736;28;20047;-76
2022/06/10 01:49:17;;;;;;;9.35;2.65;;;11.30;99.90;;;;;;5069944;28;20123;-78
2022/06/10 01:51:48;;;;;;;6.47;2.08;;;11.30;99.90;;;;;;5069835;28;20051;-77
2022/06/10 01:54:31;;;;;;;9.73;3.25;;;11.30;99.90;;;;;;5069971;28;20513;-77
2022/06/10 01:57:00;;;;;;;8.70;2.58;;;11.30;99.90;;;;;;5069800;28;20161;-76
2022/06/10 01:59:50;;;;;;;7.18;2.55;;;11.30;99.90;;;;;;5071165;28;20535;-78
2022/06/10 02:02:21;;;;;;;10.13;4.85;;;11.30;99.90;;;;;;5069787;28;20044;-76
2022/06/10 02:04:58;;;;;;;6.78;2.70;;;11.30;99.90;;;;;;5069479;28;20072;-76
2022/06/10 02:07:45;;;;;;;7.97;2.70;;;11.30;99.90;;;;;;5069823;28;20044;-77
2022/06/10 02:10:53;;;;;;;8.57;2.50;;;11.30;99.90;;;;;;5069761;28;20041;-76
2022/06/10 02:13:25;;;;;;;10.55;2.58;;;11.20;99.90;;;;;;5059893;28;20063;-76
2022/06/10 02:15:54;;;;;;;7.77;2.40;;;11.20;99.90;;;;;;5089576;28;20087;-78
2022/06/10 02:18:29;;;;;;;7.75;2.67;;;11.10;99.90;;;;;;5087053;28;20290;-77
2022/06/10 02:21:01;;;;;;;10.40;3.42;;;11.20;99.90;;;;;;5069269;28;20040;-77
2022/06/10 02:23:40;;;;;;;7.45;2.53;;;11.10;99.90;;;;;;5069400;28;20052;-78
2022/06/10 02:26:07;;;;;;;7.88;2.35;;;11.10;99.90;;;;;;5052800;28;20041;-77
2022/06/10 02:28:38;;;;;;;5.28;2.45;;;11.10;99.90;;;;;;5069500;28;20037;-77
2022/06/10 02:31:09;;;;;;;4.53;2.95;;;11.00;99.90;;;;;;5069402;28;20460;-77
2022/06/10 02:33:37;;;;;;;4.35;2.60;;;11.10;99.90;;;;;;5069424;28;20120;-77
2022/06/10 02:36:17;;;;;;;8.15;2.78;;;11.00;99.90;;;;;;5069396;28;20385;-76
2022/06/10 02:38:52;;;;;;;7.95;2.30;;;11.00;99.90;;;;;;5070587;28;20040;-78
2022/06/10 02:41:34;;;;;;;8.00;3.10;;;11.00;99.90;;;;;;5069180;28;20051;-77
2022/06/10 02:44:21;;;;;;;6.85;2.60;;;11.00;99.90;;;;;;5069353;28;20048;-77
2022/06/10 02:46:56;;;;;;;12.50;3.97;;;11.00;99.90;;;;;;5069257;28;20039;-78
2022/06/10 02:49:22;;;;;;;4.57;2.80;;;10.90;99.90;;;;;;5052846;28;20090;-77
2022/06/10 02:51:48;;;;;;;8.68;3.00;;;10.90;99.90;;;;;;5069181;28;20036;-78
2022/06/10 02:54:32;;;;;;;6.70;2.53;;;11.00;99.90;;;;;;5072979;28;20044;-76
2022/06/10 02:57:01;;;;;;;6.53;2.47;;;10.90;99.90;;;;;;5056236;28;20384;-78
2022/06/10 03:02:49;;;;;;;7.53;2.65;;;10.90;99.90;;;;;;5074200;28;20068;-77
2022/06/10 03:05:33;;;;;;;4.53;2.60;;;10.80;99.90;;;;;;5072860;28;20396;-77
2022/06/10 03:08:31;;;;;;;4.38;2.60;;;10.90;99.90;;;;;;5074006;28;20040;-77
2022/06/10 03:11:21;;;;;;;6.55;2.92;;;10.90;99.90;;;;;;5051970;28;20380;-76
2022/06/10 03:13:46;;;;;;;11.07;3.38;;;10.90;99.90;;;;;;5056009;28;20372;-78
2022/06/10 03:16:37;;;;;;;4.95;2.58;;;10.90;99.90;;;;;;5072873;28;20086;-78
2022/06/10 03:19:33;;;;;;;7.90;3.58;;;10.90;99.90;;;;;;5072713;28;20044;-77
2022/06/10 03:22:28;;;;;;;9.73;3.03;;;10.90;99.90;;;;;;5072524;28;20098;-76
2022/06/10 03:25:07;;;;;;;8.43;3.08;;;10.90;99.90;;;;;;5059591;28;20094;-76
2022/06/10 03:27:52;;;;;;;12.65;3.30;;;11.00;99.90;;;;;;5072524;28;20040;-76
2022/06/10 03:30:22;;;;;;;7.78;3.00;;;11.00;99.90;;;;;;5071884;28;20491;-76
2022/06/10 03:33:01;;;;;;;7.78;3.30;;;11.00;99.90;;;;;;5072646;28;20032;-76
2022/06/10 03:35:39;;;;;;;12.68;3.55;;;11.00;99.90;;;;;;5072297;28;20072;-77
2022/06/10 03:38:06;;;;;;;8.60;2.97;;;11.00;99.90;;;;;;5071973;28;20041;-76
2022/06/10 03:40:32;;;;;;;5.32;3.15;;;11.00;99.90;;;;;;5071864;28;20044;-77
2022/06/10 03:43:01;;;;;;;11.70;3.35;;;11.10;99.90;;;;;;5071828;28;20134;-76
2022/06/10 03:45:38;;;;;;;6.95;3.08;;;11.00;99.90;;;;;;5072197;28;20372;-77
2022/06/10 03:48:04;;;;;;;6.85;2.90;;;11.00;99.90;;;;;;5055307;28;20037;-76
2022/06/10 03:50:35;;;;;;;9.85;3.15;;;11.00;99.90;;;;;;5071769;28;20033;-76
2022/06/10 03:53:01;;;;;;;10.90;2.90;;;11.00;99.90;;;;;;5072085;28;20552;-77
2022/06/10 03:55:27;;;;;;;10.32;3.60;;;11.10;99.90;;;;;;5072235;28;20384;-77
2022/06/10 03:57:53;;;;;;;8.13;3.20;;;11.10;99.90;;;;;;5071822;28;20056;-76
2022/06/10 04:00:22;;;;;;;7.15;3.03;;;11.20;99.90;;;;;;5071716;28;20086;-76
2022/06/10 04:02:48;;;;;;;8.82;3.10;;;11.20;99.90;;;;;;5071629;28;20041;-76
2022/06/10 04:05:14;;;;;;;12.52;3.38;;;11.20;99.90;;;;;;5070859;28;20137;-76
2022/06/10 04:07:41;;;;;;;7.43;3.17;;;11.20;99.90;;;;;;5071706;28;20051;-77
2022/06/10 04:10:15;;;;;;;12.70;4.20;;;11.20;99.90;;;;;;5071796;28;20036;-76
2022/06/10 04:12:41;;;;;;;9.80;3.08;;;11.30;99.90;;;;;;5086814;28;20048;-77
2022/06/10 04:15:08;;;;;;;7.22;3.22;;;11.30;99.90;;;;;;5090928;28;20115;-78
2022/06/10 04:17:33;;;;;;;7.03;3.45;;;11.40;99.90;;;;;;5072943;28;20043;-77
2022/06/10 04:19:59;;;;;;;9.43;3.42;;;11.40;99.90;;;;;;5071263;28;20115;-77
2022/06/10 04:22:26;;;;;;;9.25;3.47;;;11.50;99.90;;;;;;5071278;28;20425;-77
2022/06/10 04:24:52;;;;;;;10.25;3.75;;;11.50;99.90;;;;;;5071074;28;20041;-77
2022/06/10 04:27:18;;;;;;;11.07;3.60;;;11.50;99.90;;;;;;5072646;28;20047;-76
2022/06/10 04:29:44;;;;;;;10.70;3.83;;;11.70;99.90;;;;;;5070878;28;20037;-77
2022/06/10 04:32:10;;;;;;;12.90;3.97;;;11.70;99.90;;;;;;5071161;28;20040;-76
2022/06/10 04:34:36;;;;;;;8.98;3.20;;;11.80;99.90;;;;;;5054258;28;20070;-76
2022/06/10 04:37:03;;;;;;;7.85;3.95;;;11.80;99.90;;;;;;5071021;28;20055;-77
2022/06/10 04:39:29;;;;;;;8.60;3.45;;;11.90;99.90;;;;;;5070761;28;20044;-77
2022/06/10 04:41:54;;;;;;;13.73;3.65;;;12.00;99.90;;;;;;5070883;28;20047;-78
2022/06/10 04:44:20;;;;;;;9.00;3.58;;;12.10;99.90;;;;;;5070891;28;20127;-76
2022/06/10 04:46:46;;;;;;;8.05;3.97;;;12.30;99.90;;;;;;5071069;28;20438;-77
2022/06/10 04:49:12;;;;;;;11.35;4.30;;;12.60;99.90;;;;;;5070824;28;20036;-77
2022/06/10 04:51:38;;;;;;;12.32;4.32;;;13.10;99.90;;;;;;5070548;28;20059;-76
2022/06/10 04:54:08;;;;;;;11.10;3.90;;;13.50;99.90;;;;;;5070493;28;20048;-77
2022/06/10 04:56:34;;;;;;;8.45;3.60;;;13.70;99.90;;;;;;5070929;28;20499;-77
2022/06/10 04:58:59;;;;;;;14.85;4.60;;;13.90;99.90;;;;;;5070728;28;20045;-77
2022/06/10 05:01:25;;;;;;;9.20;4.00;;;14.00;99.90;;;;;;5070484;28;20048;-77
2022/06/10 05:03:51;;;;;;;9.07;3.78;;;14.20;99.90;;;;;;5071631;28;20518;-77
2022/06/10 05:06:16;;;;;;;9.95;3.22;;;14.60;99.90;;;;;;5070533;28;20043;-78
2022/06/10 05:08:42;;;;;;;9.77;2.97;;;15.10;99.90;;;;;;5070482;28;20045;-77
2022/06/10 05:11:07;;;;;;;10.85;3.90;;;15.90;99.90;;;;;;5070268;28;20371;-76
2022/06/10 05:13:35;;;;;;;12.43;3.05;;;16.60;99.90;;;;;;5071005;28;20055;-81
2022/06/10 05:16:01;;;;;;;7.07;3.10;;;16.90;99.90;;;;;;5071393;28;20044;-81
2022/06/10 05:18:27;;;;;;;9.85;3.20;;;16.60;99.90;;;;;;5054349;28;20488;-80
2022/06/10 05:20:54;;;;;;;7.50;2.80;;;16.40;99.90;;;;;;5071663;28;20044;-80
2022/06/10 05:23:22;;;;;;;11.75;3.17;;;16.10;99.90;;;;;;5055151;28;20076;-80
2022/06/10 05:25:48;;;;;;;11.23;3.20;;;15.90;99.90;;;;;;5071823;28;20043;-80
2022/06/10 05:28:14;;;;;;;7.97;3.60;;;15.70;99.90;;;;;;5071582;28;20032;-81
2022/06/10 05:30:41;;;;;;;7.88;3.00;;;15.50;99.90;;;;;;5054389;28;20085;-81
2022/06/10 05:33:09;;;;;;;11.77;3.75;;;15.40;99.90;;;;;;5070906;28;20052;-80
2022/06/10 05:35:36;;;;;;;6.93;3.38;;;15.30;99.90;;;;;;5071165;28;20079;-80
2022/06/10 05:38:02;;;;;;;12.38;3.55;;;15.10;99.90;;;;;;5070877;28;20464;-80
2022/06/10 05:40:30;;;;;;;7.97;3.13;;;15.10;99.90;;;;;;5070822;28;20040;-80
2022/06/10 05:42:56;;;;;;;16.17;4.07;;;15.00;99.90;;;;;;5054056;28;20055;-80
2022/06/10 05:45:22;;;;;;;13.38;3.67;;;14.90;99.90;;;;;;5071509;28;20124;-80
2022/06/10 05:47:53;;;;;;;5.95;3.42;;;14.80;99.90;;;;;;5073507;28;20068;-80
2022/06/10 05:50:30;;;;;;;7.63;3.30;;;14.80;99.90;;;;;;5058172;28;20098;-80
2022/06/10 05:52:56;;;;;;;8.68;3.05;;;14.80;99.90;;;;;;5058399;28;20076;-80
2022/06/10 05:55:22;;;;;;;11.00;3.88;;;14.80;99.90;;;;;;5057445;28;20090;-80
2022/06/10 05:57:50;;;;;;;5.93;2.97;;;14.80;99.90;;;;;;5074728;28;20044;-80
2022/06/10 06:00:23;;;;;;;5.20;2.72;;;14.90;99.90;;;;;;5073789;28;20126;-79
2022/06/10 06:02:50;;;;;;;8.15;3.08;;;14.90;99.90;;;;;;5057634;28;20051;-79
2022/06/10 06:05:17;;;;;;;7.38;2.83;;;15.00;99.90;;;;;;5056143;28;20049;-80
2022/06/10 06:07:44;;;;;;;11.85;3.47;;;15.10;99.90;;;;;;5073667;28;20045;-80
2022/06/10 06:10:15;;;;;;;9.80;3.72;;;15.20;99.90;;;;;;5055671;28;20483;-81
2022/06/10 06:12:43;;;;;;;7.85;3.17;;;15.30;99.90;;;;;;5073559;28;20119;-81
2022/06/10 06:15:10;;;;;;;13.52;3.83;;;15.40;99.90;;;;;;5055558;28;20487;-80
2022/06/10 06:17:35;;;;;;;10.52;3.00;;;15.40;99.90;;;;;;5057037;28;20565;-81
2022/06/10 06:20:02;;;;;;;14.00;3.55;;;15.40;99.90;;;;;;5066508;28;20036;-81
2022/06/10 06:22:27;;;;;;;8.80;3.13;;;15.40;99.90;;;;;;5058393;28;20443;-81
2022/06/10 06:24:53;;;;;;;9.32;3.63;;;15.40;99.90;;;;;;5055051;28;20128;-81
2022/06/10 06:27:19;;;;;;;15.68;3.42;;;15.40;99.90;;;;;;5068432;28;20184;-82
2022/06/10 06:29:45;;;;;;;14.93;3.33;;;15.40;99.90;;;;;;5055916;28;20060;-82
2022/06/10 06:32:11;;;;;;;6.20;3.00;;;15.40;99.90;;;;;;5069900;28;20048;-81
2022/06/10 06:34:38;;;;;;;10.98;3.22;;;15.30;99.90;;;;;;5079107;28;20526;-81
2022/06/10 06:37:08;;;;;;;9.70;3.28;;;15.20;99.90;;;;;;5056852;28;20135;-81
2022/06/10 06:39:34;;;;;;;7.85;3.70;;;15.20;99.90;;;;;;5059957;28;20451;-81
2022/06/10 06:42:00;;;;;;;9.50;3.08;;;15.30;99.90;;;;;;5063395;28;20076;-81
2022/06/10 06:44:26;;;;;;;10.48;3.58;;;15.30;99.90;;;;;;5065208;28;20049;-80
2022/06/10 06:46:52;;;;;;;8.63;3.95;;;15.40;99.90;;;;;;5087615;28;20029;-81
2022/06/10 06:49:23;;;;;;;10.60;4.20;;;15.30;99.90;;;;;;5071849;28;20060;-82
2022/06/10 06:51:49;;;;;;;6.90;4.00;;;15.40;99.90;;;;;;5066041;28;20032;-81
2022/06/10 06:54:16;;;;;;;9.88;4.22;;;15.40;99.90;;;;;;5071957;28;20048;-81
2022/06/10 06:56:42;;;;;;;9.13;3.88;;;15.50;99.90;;;;;;5068608;28;20064;-79
2022/06/10 06:59:09;;;;;;;11.77;4.55;;;15.60;99.90;;;;;;5067129;28;20056;-81
2022/06/10 07:01:35;;;;;;;11.82;4.38;;;15.60;99.90;;;;;;5051440;28;20183;-80
2022/06/10 07:04:03;;;;;;;15.68;4.43;;;15.70;99.90;;;;;;5065313;28;20045;-82
2022/06/10 07:06:29;;;;;;;10.00;4.10;;;15.80;99.90;;;;;;5068173;28;20047;-82
2022/06/10 07:08:55;;;;;;;11.82;4.90;;;15.90;99.90;;;;;;5057565;28;20041;-81
2022/06/10 07:11:20;;;;;;;14.45;3.95;;;16.00;99.90;;;;;;5061441;28;20037;-81
2022/06/10 07:13:46;;;;;;;10.20;3.65;;;16.10;99.90;;;;;;5060148;28;20067;-81
2022/06/10 07:16:12;;;;;;;7.10;3.60;;;16.30;99.90;;;;;;5060363;28;20055;-81
2022/06/10 07:18:38;;;;;;;9.43;3.85;;;16.40;99.90;;;;;;5045335;28;20044;-81
2022/06/10 07:21:04;;;;;;;10.05;3.60;;;16.50;99.90;;;;;;5043637;28;20082;-79
2022/06/10 07:23:31;;;;;;;9.20;3.72;;;16.60;99.90;;;;;;5059603;28;20047;-81
2022/06/10 07:25:59;;;;;;;7.47;3.50;;;16.70;99.90;;;;;;5073064;28;20037;-80
2022/06/10 07:28:25;;;;;;;13.20;4.30;;;16.70;99.90;;;;;;5074600;28;20175;-81
2022/06/10 07:30:51;;;;;;;10.18;3.35;;;16.90;99.90;;;;;;5074247;28;20157;-81
2022/06/10 07:33:17;;;;;;;10.18;3.55;;;17.00;99.90;;;;;;5074669;28;20048;-78
2022/06/10 07:35:43;;;;;;;10.15;3.90;;;17.30;99.90;;;;;;5097687;28;20032;-80
2022/06/10 07:38:09;;;;;;;13.75;3.50;;;17.50;99.90;;;;;;5081641;28;20049;-81
2022/06/10 07:43:26;;;;;;;7.97;3.33;;;17.70;99.90;;;;;;5072590;28;20058;-81
2022/06/10 07:45:52;;;;;;;17.48;3.83;;;17.80;99.90;;;;;;5062082;28;20120;-81
2022/06/10 07:48:18;;;;;;;8.68;3.10;;;17.80;99.90;;;;;;5057610;28;20051;-80
2022/06/10 07:50:46;;;;;;;6.32;2.80;;;17.80;99.90;;;;;;5047008;28;20100;-81
2022/06/10 07:53:12;;;;;;;9.82;2.90;;;17.90;99.90;;;;;;5063935;28;20158;-81
2022/06/10 07:55:39;;;;;;;7.85;3.03;;;18.10;99.90;;;;;;5053477;28;20040;-80
2022/06/10 07:58:05;;;;;;;10.07;3.30;;;18.20;99.90;;;;;;5055455;28;20162;-81
2022/06/10 08:00:34;;;;;;;9.07;2.70;;;18.20;99.90;;;;;;5067734;28;20047;-81
2022/06/10 08:03:00;;;;;;;9.38;3.28;;;18.10;99.90;;;;;;5070848;28;20124;-82
2022/06/10 08:05:26;;;;;;;10.73;3.03;;;18.00;99.90;;;;;;5072786;28;20041;-82
2022/06/10 08:07:51;;;;;;;10.40;2.78;;;17.90;99.90;;;;;;5055122;28;20048;-81
2022/06/10 08:10:26;;;;;;;9.52;3.38;;;17.80;99.90;;;;;;5071960;28;20035;-82
2022/06/10 08:12:52;;;;;;;10.77;3.42;;;17.70;99.90;;;;;;5072164;28;20047;-82
2022/06/10 08:15:19;;;;;;;9.38;2.90;;;17.70;99.90;;;;;;5055857;28;20048;-82
2022/06/10 08:17:46;;;;;;;7.35;2.88;;;17.70;99.90;;;;;;5072896;28;20427;-82
2022/06/10 08:20:18;;;;;;;10.25;3.30;;;17.60;99.90;;;;;;5052371;28;20067;-83
2022/06/10 08:22:44;;;;;;;5.65;2.50;;;17.60;99.90;;;;;;5061863;28;20483;-82
2022/06/10 08:25:11;;;;;;;7.18;2.35;;;17.60;99.90;;;;;;5055901;28;20032;-82
2022/06/10 08:27:37;;;;;;;7.70;2.50;;;17.60;99.90;;;;;;5055236;28;20380;-82
2022/06/10 08:30:06;;;;;;;12.25;3.08;;;17.70;99.90;;;;;;5066521;28;20036;-81
2022/06/10 08:32:31;;;;;;;9.68;2.67;;;17.80;99.90;;;;;;5072371;28;20036;-82
2022/06/10 08:34:57;;;;;;;6.35;2.80;;;17.90;99.90;;;;;;5072584;28;20147;-82
2022/06/10 08:37:23;;;;;;;11.27;2.83;;;17.90;99.90;;;;;;5073776;28;20044;-82
2022/06/10 08:39:48;;;;;;;9.50;2.80;;;18.00;99.90;;;;;;5070635;28;20146;-82
2022/06/10 08:42:30;;;;;;;7.28;2.72;;;17.90;99.90;;;;;;5076348;28;20193;-81
2022/06/10 08:44:59;;;;;;;4.28;2.78;;;18.00;99.90;;;;;;5074446;28;20543;-81
2022/06/10 08:47:35;;;;;;;6.55;2.78;;;18.10;99.90;;;;;;5074229;28;20036;-81
2022/06/10 08:50:13;;;;;;;6.55;3.22;;;18.00;99.90;;;;;;5072204;28;20041;-82
2022/06/10 08:52:50;;;;;;;6.90;3.03;;;18.10;99.90;;;;;;5072849;28;20044;-82
2022/06/10 08:55:48;;;;;;;9.75;2.80;;;18.20;99.90;;;;;;5077365;28;20130;-80
2022/06/10 08:58:32;;;;;;;11.65;4.07;;;18.30;99.90;;;;;;5062932;28;20037;-81
2022/06/10 09:01:07;;;;;;;12.70;3.40;;;18.20;99.90;;;;;;5073976;28;20056;-79
2022/06/10 09:04:08;;;;;;;8.95;2.88;;;18.30;99.90;;;;;;5077334;23;20049;-81
2022/06/10 09:10:17;;;;;;;8.68;3.35;;;18.20;99.90;;;;;;5049432;28;20041;-80
2022/06/10 09:13:05;;;;;;;7.97;3.40;;;18.20;99.90;;;;;;5053833;28;20120;-81
2022/06/10 09:15:58;;;;;;;10.57;3.00;;;18.10;99.90;;;;;;5015485;28;20034;-82
2022/06/10 09:18:55;;;;;;;11.60;3.00;;;18.10;99.90;;;;;;5035399;28;20538;-82
2022/06/10 09:21:31;;;;;;;7.18;2.80;;;18.00;99.90;;;;;;5028553;28;20046;-81
2022/06/10 09:24:22;;;;;;;9.73;2.42;;;18.10;99.90;;;;;;5017648;28;20094;-81
2022/06/10 09:27:17;;;;;;;6.03;2.53;;;18.00;99.90;;;;;;5036611;28;20055;-83
2022/06/10 09:29:43;;;;;;;9.50;2.58;;;18.00;99.90;;;;;;5039594;28;20119;-80
2022/06/10 09:32:50;;;;;;;8.65;2.78;;;18.00;99.90;;;;;;5014413;28;20157;-82
2022/06/10 09:35:38;;;;;;;8.32;2.42;;;18.10;99.90;;;;;;5011186;28;20041;-81
2022/06/10 09:38:30;;;;;;;7.15;2.58;;;18.30;99.90;;;;;;5034596;28;20507;-80
2022/06/10 09:41:08;;;;;;;11.35;2.80;;;18.50;99.90;;;;;;5015219;28;20611;-79
2022/06/10 09:43:55;;;;;;;10.93;2.40;;;18.60;99.90;;;;;;5016991;28;20385;-81
2022/06/10 09:46:48;;;;;;;6.55;2.70;;;18.70;99.90;;;;;;5033110;28;20052;-81
2022/06/10 09:49:54;;;;;;;7.30;2.65;;;18.80;99.90;;;;;;5029350;28;20104;-82
2022/06/10 09:56:28;;;;;;;7.95;2.35;;;19.40;99.90;;;;;;5019691;28;20053;-81
2022/06/10 09:59:08;;;;;;;8.70;2.95;;;20.00;99.90;;;;;;5010042;28;20040;-81
2022/06/10 10:01:52;;;;;;;6.03;1.80;;;20.40;99.90;;;;;;5007158;28;20042;-80
2022/06/10 10:04:45;;;;;;;4.45;2.10;;;20.90;99.90;;;;;;5034391;28;20091;-80
2022/06/10 10:07:34;;;;;;;7.57;2.47;;;21.40;99.90;;;;;;5018641;28;20591;-80
2022/06/10 10:10:25;;;;;;;7.22;2.38;;;21.80;99.90;;;;;;5036023;28;20039;-81
2022/06/10 10:13:06;;;;;;;8.90;2.60;;;22.00;99.90;;;;;;5003946;28;20046;-80
2022/06/10 10:15:53;;;;;;;11.90;2.70;;;22.10;99.90;;;;;;4997174;28;20081;-80
2022/06/10 10:18:28;;;;;;;6.65;2.42;;;22.00;99.90;;;;;;5003384;28;20421;-79
2022/06/10 10:21:07;;;;;;;5.38;2.55;;;21.80;99.90;;;;;;5010754;28;20124;-82
2022/06/10 10:23:37;;;;;;;8.30;2.30;;;21.80;99.90;;;;;;5026716;28;20034;-80
2022/06/10 10:26:30;;;;;;;7.68;2.60;;;21.80;99.90;;;;;;5034189;28;20064;-80
2022/06/10 10:29:13;;;;;;;7.97;2.67;;;21.80;99.90;;;;;;5009529;28;20053;-82
2022/06/10 10:31:49;;;;;;;5.90;2.97;;;21.90;99.90;;;;;;5032185;28;20132;-81
2022/06/10 10:34:23;;;;;;;9.23;3.30;;;22.10;99.90;;;;;;5017103;28;20041;-80
2022/06/10 10:36:57;;;;;;;7.65;2.35;;;22.40;99.90;;;;;;5035239;28;20045;-81
2022/06/10 10:39:32;;;;;;;7.95;2.47;;;22.50;99.90;;;;;;5031050;28;20060;-84
2022/06/10 10:42:01;;;;;;;6.22;2.70;;;22.60;99.90;;;;;;5030986;28;20121;-82
2022/06/10 10:44:39;;;;;;;8.93;2.95;;;22.60;99.90;;;;;;5015173;28;20068;-82
2022/06/10 10:47:19;;;;;;;10.90;2.58;;;22.80;99.90;;;;;;5014847;28;20048;-84
2022/06/10 10:50:03;;;;;;;9.68;2.92;;;23.10;99.90;;;;;;5029745;28;20045;-83
2022/06/10 10:52:36;;;;;;;8.18;2.88;;;23.20;99.90;;;;;;5029895;28;20418;-84
2022/06/10 10:55:11;;;;;;;9.60;2.83;;;23.30;99.90;;;;;;5005859;28;20068;-82
2022/06/10 10:57:42;;;;;;;9.05;2.83;;;23.10;99.90;;;;;;5017627;28;20524;-80
2022/06/10 11:00:11;;;;;;;8.07;2.78;;;22.90;99.90;;;;;;5030676;28;20520;-84
2022/06/10 11:02:47;;;;;;;8.63;2.95;;;22.70;99.90;;;;;;5030169;28;20081;-79
2022/06/10 11:05:25;;;;;;;7.85;2.28;;;22.40;99.90;;;;;;5041799;28;20176;-78
2022/06/10 11:08:15;;;;;;;8.77;2.75;;;22.30;99.90;;;;;;5055101;28;20046;-82
2022/06/10 11:11:01;;;;;;;8.43;2.40;;;22.40;99.90;;;;;;5018583;28;20037;-82
2022/06/10 11:13:34;;;;;;;10.15;2.65;;;22.50;99.90;;;;;;5014222;28;20037;-82
2022/06/10 11:16:27;;;;;;;6.85;2.47;;;22.80;99.90;;;;;;5033268;28;20575;-82
2022/06/10 11:19:14;;;;;;;7.10;2.25;;;23.10;99.90;;;;;;5018561;28;20037;-81
2022/06/10 11:22:06;;;;;;;10.52;2.83;;;23.10;99.90;;;;;;5015914;28;20047;-81
2022/06/10 11:24:43;;;;;;;;;;;23.00;99.90;;;;;;5043475;28;20407;-81
2022/06/10 11:27:37;;;;;;;10.57;2.10;;;22.80;99.90;;;;;;5032290;28;19935;-81
2022/06/10 11:30:15;;;;;;;12.25;2.28;;;22.60;99.90;;;;;;5028432;28;20034;-82
2022/06/10 11:32:53;;;;;;;7.90;2.92;;;22.40;99.90;;;;;;5026005;28;20076;-80
2022/06/10 11:35:22;;;;;;;6.50;2.17;;;22.10;99.90;;;;;;5017329;28;20091;-80
2022/06/10 11:37:52;;;;;;;7.90;2.15;;;22.10;99.90;;;;;;5027546;28;20069;-81
2022/06/10 11:40:25;;;;;;;10.40;2.28;;;22.20;99.90;;;;;;5031708;28;20411;-81
2022/06/10 11:43:05;;;;;;;4.60;1.92;;;22.40;99.90;;;;;;5034457;28;20042;-80
2022/06/10 11:45:49;;;;;;;5.38;1.90;;;22.50;99.90;;;;;;5011124;28;20382;-80
2022/06/10 11:48:34;;;;;;;9.60;2.40;;;22.40;99.90;;;;;;5034313;28;20041;-78
2022/06/10 11:51:12;;;;;;;8.00;2.53;;;22.30;99.90;;;;;;5033524;28;20045;-80
2022/06/10 11:53:42;;;;;;;7.18;2.25;;;22.40;99.90;;;;;;5005564;28;20461;-79
2022/06/10 12:00:02;;;;;;;8.73;2.38;;;22.60;99.90;;;;;;5015329;28;20141;-79
2022/06/10 12:03:09;;;;;;;6.15;2.30;;;22.80;99.90;;;;;;5014168;28;20104;-80
2022/06/10 12:05:41;;;;;;;6.93;2.53;;;22.90;99.90;;;;;;5046513;28;20041;-79
2022/06/10 12:08:15;;;;;;;7.00;2.10;;;22.90;99.90;;;;;;5032338;28;20512;-80
2022/06/10 12:10:57;;;;;;;6.43;2.53;;;22.90;99.90;;;;;;5028632;28;20520;-79
2022/06/10 12:13:24;;;;;;;;;;;22.80;99.90;;;;;;5019611;28;20044;-80
2022/06/10 12:15:55;;;;;;;6.40;2.20;;;22.60;99.90;;;;;;5035894;28;20430;-80
2022/06/10 12:18:23;;;;;;;9.63;2.38;;;22.50;99.90;;;;;;5019974;28;20055;-81
2022/06/10 12:20:55;;;;;;;8.95;2.20;;;22.30;99.90;;;;;;5035094;28;20049;-81
2022/06/10 12:23:25;;;;;;;9.73;2.50;;;22.10;99.90;;;;;;5017094;28;20060;-81
2022/06/10 12:26:01;;;;;;;16.10;3.80;;;22.00;99.90;;;;;;5035169;28;20421;-83
2022/06/10 12:28:41;;;;;;;9.15;2.15;;;21.80;99.90;;;;;;5017281;28;20824;-81
2022/06/10 12:31:52;;;;;;;8.75;1.98;;;21.70;99.90;;;;;;5017907;28;20049;-82
2022/06/10 12:34:36;;;;;;;9.25;1.92;;;21.70;99.90;;;;;;4981007;28;20125;-80
2022/06/10 12:37:06;;;;;;;10.23;2.55;;;21.80;99.90;;;;;;5033724;28;20056;-82
2022/06/10 12:39:56;;;;;;;6.07;2.05;;;22.00;99.90;;;;;;5033425;28;20060;-79
2022/06/10 12:42:31;;;;;;;9.07;2.35;;;22.10;99.90;;;;;;5016637;28;20048;-81
2022/06/10 12:44:59;;;;;;;6.75;2.17;;;22.10;99.90;;;;;;5008491;28;20129;-80
2022/06/10 12:47:34;;;;;;;7.20;2.40;;;22.30;99.90;;;;;;5035053;28;20037;-81
2022/06/10 12:50:03;;;;;;;4.97;2.00;;;22.50;99.90;;;;;;5034776;28;20738;-81
2022/06/10 12:52:59;;;;;;;9.43;2.15;;;22.60;99.90;;;;;;5034555;28;20052;-81
2022/06/10 12:55:31;;;;;;;8.75;2.67;;;22.60;99.90;;;;;;5030453;28;20076;-80
2022/06/10 12:57:57;;;;;;;7.57;2.42;;;22.50;99.90;;;;;;5031916;28;20048;-81
2022/06/10 13:00:22;;;;;;;8.85;2.03;;;22.50;99.90;;;;;;5031512;28;20135;-80
2022/06/10 13:02:54;;;;;;;10.15;2.65;;;22.50;99.90;;;;;;5032493;28;20065;-81
2022/06/10 13:05:23;;;;;;;8.93;3.05;;;22.50;99.90;;;;;;5015913;28;20097;-81
2022/06/10 13:07:49;;;;;;;8.30;2.60;;;22.60;99.90;;;;;;5032994;28;20409;-81
2022/06/10 13:10:33;;;;;;;6.13;2.55;;;22.60;99.90;;;;;;5031950;28;20497;-80
2022/06/10 13:13:22;;;;;;;10.43;2.60;;;22.70;99.90;;;;;;5033169;28;20048;-78
2022/06/10 13:15:49;;;;;;;5.68;2.40;;;22.80;99.90;;;;;;5017386;28;20045;-81
2022/06/10 13:18:18;;;;;;;4.60;2.05;;;23.00;99.90;;;;;;5017187;28;20044;-81
2022/06/10 13:20:49;;;;;;;9.80;2.45;;;23.30;99.90;;;;;;5016318;28;20096;-82
2022/06/10 13:23:27;;;;;;;16.23;3.67;;;23.50;99.90;;;;;;5017413;28;20037;-83
2022/06/10 13:26:04;;;;;;;11.90;2.72;;;23.70;99.90;;;;;;5016313;28;20500;-82
2022/06/10 13:28:37;;;;;;;8.45;2.30;;;23.90;99.90;;;;;;5015897;28;20133;-82
2022/06/10 13:31:22;;;;;;;6.63;2.42;;;24.00;99.90;;;;;;5032837;28;20064;-81
2022/06/10 13:34:04;;;;;;;13.25;3.15;;;24.10;99.90;;;;;;5032273;28;20060;-85
2022/06/10 13:36:35;;;;;;;9.60;1.92;;;23.90;99.90;;;;;;5031188;28;20052;-83